Time;durP1;ratioP1;P1;durP2;ratioP2;P2;SDS_P1;SDS_P2;PMS_P1;PMS_P2;Temp;Humidity;BMP_temperature;BMP_pressure;BME280_temperature;BME280_humidity;BME280_pressure;Samples;Min_cycle;Max_cycle;Signal;HPM_P1;HPM_P2
2023/04/26 00:01:34;;;;;;;1.20;1.20;;;;;;;9.80;68.51;98901.78;4445145;32;33849;-80
2023/04/26 00:04:03;;;;;;;0.95;0.95;;;;;;;9.77;68.66;98897.53;4446159;32;33923;-80
2023/04/26 00:06:33;;;;;;;0.90;0.90;;;;;;;9.76;68.23;98895.84;4439038;32;34371;-80
2023/04/26 00:09:03;;;;;;;1.55;1.45;;;;;;;9.70;68.50;98900.31;4436098;32;34267;-81
2023/04/26 00:11:32;;;;;;;1.77;1.30;;;;;;;9.82;67.85;98910.37;4441597;32;34492;-81
2023/04/26 00:14:03;;;;;;;1.00;1.00;;;;;;;10.00;67.49;98915.16;4446140;32;33548;-80
2023/04/26 00:16:33;;;;;;;0.90;0.90;;;;;;;9.91;67.48;98919.69;4431654;32;33127;-81
2023/04/26 00:19:03;;;;;;;0.88;0.88;;;;;;;9.88;67.69;98917.16;4430953;32;34012;-80
2023/04/26 00:21:32;;;;;;;0.88;0.88;;;;;;;10.00;67.57;98914.28;4443692;32;33520;-80
2023/04/26 00:24:01;;;;;;;0.93;0.93;;;;;;;10.14;67.04;98917.41;4432246;32;33665;-81
2023/04/26 00:26:30;;;;;;;0.93;0.93;;;;;;;9.93;67.83;98921.38;4444058;32;33192;-80
2023/04/26 00:28:59;;;;;;;1.00;1.00;;;;;;;9.99;67.28;98928.97;4442059;32;34386;-81
2023/04/26 00:31:27;;;;;;;1.05;1.05;;;;;;;10.31;66.39;98921.38;4434551;32;34719;-82
2023/04/26 00:33:58;;;;;;;1.55;1.45;;;;;;;10.34;66.46;98927.34;4429746;32;34195;-80
2023/04/26 00:36:27;;;;;;;0.90;0.90;;;;;;;10.43;65.75;98924.50;4440446;32;33356;-81
2023/04/26 00:38:55;;;;;;;0.95;0.95;;;;;;;10.17;67.00;98940.69;4437247;32;33653;-81
2023/04/26 00:41:24;;;;;;;1.08;1.08;;;;;;;10.48;65.81;98937.34;4438540;32;33720;-81
2023/04/26 00:43:53;;;;;;;1.62;1.33;;;;;;;10.59;65.11;98937.94;4439112;32;33591;-81
2023/04/26 00:46:22;;;;;;;1.00;1.00;;;;;;;10.44;65.29;98941.78;4429642;32;33146;-81
2023/04/26 00:48:51;;;;;;;0.90;0.90;;;;;;;10.26;66.34;98944.78;4430712;32;33426;-81
2023/04/26 00:51:22;;;;;;;0.90;0.90;;;;;;;10.33;65.87;98941.19;4429972;32;34511;-81
2023/04/26 00:53:51;;;;;;;1.27;1.17;;;;;;;10.21;66.35;98944.88;4435506;32;35112;-82
2023/04/26 00:56:21;;;;;;;2.15;1.33;;;;;;;10.23;66.32;98948.28;4429799;32;32985;-80
2023/04/26 00:58:52;;;;;;;0.90;0.90;;;;;;;10.03;66.80;98946.16;4430022;32;34041;-80
2023/04/26 01:01:21;;;;;;;0.80;0.80;;;;;;;9.88;67.15;98946.50;4438692;32;33910;-80
2023/04/26 01:03:51;;;;;;;0.80;0.80;;;;;;;9.81;67.22;98955.31;4434370;32;33807;-83
2023/04/26 01:06:20;;;;;;;1.00;1.00;;;;;;;9.64;67.78;98960.88;4451614;32;33027;-80
2023/04/26 01:08:52;;;;;;;1.02;1.02;;;;;;;9.74;67.71;98959.78;4444150;32;33132;-82
2023/04/26 01:11:23;;;;;;;0.90;0.90;;;;;;;9.93;66.83;98954.16;4439539;32;33756;-81
2023/04/26 01:13:51;;;;;;;0.90;0.90;;;;;;;9.83;66.91;98959.59;4444270;32;33868;-80
2023/04/26 01:16:20;;;;;;;1.15;1.08;;;;;;;10.01;66.24;98947.09;4437010;32;33753;-81
2023/04/26 01:18:51;;;;;;;0.90;0.90;;;;;;;9.90;66.12;98949.91;4438389;32;34507;-80
2023/04/26 01:21:21;;;;;;;0.90;0.90;;;;;;;9.85;66.37;98958.69;4437764;32;33924;-81
2023/04/26 01:23:52;;;;;;;1.00;0.98;;;;;;;9.86;66.03;98957.78;4435160;32;34454;-80
2023/04/26 01:26:20;;;;;;;0.80;0.80;;;;;;;9.72;66.57;98966.72;4439467;32;32619;-81
2023/04/26 01:28:49;;;;;;;1.40;1.30;;;;;;;9.65;66.59;98980.69;4434786;32;33438;-80
2023/04/26 01:31:18;;;;;;;0.90;0.90;;;;;;;9.54;66.61;98967.97;4436769;32;33442;-80
2023/04/26 01:33:47;;;;;;;1.00;1.00;;;;;;;9.63;66.61;98982.44;4441863;32;33345;-82
2023/04/26 01:36:16;;;;;;;1.10;1.10;;;;;;;9.67;66.24;98978.06;4438131;32;33072;-81
2023/04/26 01:38:45;;;;;;;2.10;2.00;;;;;;;9.39;66.74;98979.47;4447585;32;34143;-80
2023/04/26 01:41:15;;;;;;;1.08;1.08;;;;;;;9.66;65.70;98976.34;4433967;32;34524;-80
2023/04/26 01:43:44;;;;;;;0.95;0.95;;;;;;;9.52;66.16;98976.62;4435916;32;33686;-80
2023/04/26 01:46:13;;;;;;;1.00;1.00;;;;;;;9.46;66.58;98980.19;4435128;32;34113;-81
2023/04/26 01:48:42;;;;;;;1.00;1.00;;;;;;;9.46;66.50;98985.38;4434960;32;34236;-82
2023/04/26 01:51:12;;;;;;;1.10;1.05;;;;;;;9.48;66.25;98982.78;4442183;32;34019;-80
2023/04/26 01:53:40;;;;;;;0.93;0.90;;;;;;;9.55;65.53;98984.34;4436060;32;34500;-81
2023/04/26 01:56:10;;;;;;;1.35;1.25;;;;;;;9.52;65.51;98982.69;4437235;32;33447;-82
2023/04/26 01:58:40;;;;;;;0.90;0.90;;;;;;;9.27;66.47;98984.88;4444186;32;33522;-81
2023/04/26 02:01:10;;;;;;;0.90;0.90;;;;;;;9.19;66.73;98987.63;4440690;32;34454;-80
2023/04/26 02:03:39;;;;;;;1.30;1.20;;;;;;;9.04;66.76;98982.75;4441530;32;34748;-81
2023/04/26 02:06:08;;;;;;;1.20;1.10;;;;;;;9.12;66.72;98985.19;4437043;32;33051;-82
2023/04/26 02:08:37;;;;;;;2.58;1.15;;;;;;;9.19;66.17;98990.22;4444223;32;33190;-79
2023/04/26 02:11:07;;;;;;;1.00;1.00;;;;;;;9.27;65.95;98995.22;4448299;32;33592;-82
2023/04/26 02:13:37;;;;;;;1.40;1.30;;;;;;;9.13;66.18;98992.06;4433285;32;34258;-81
2023/04/26 02:16:07;;;;;;;0.90;0.90;;;;;;;9.18;65.82;98996.28;4444960;32;33543;-82
2023/04/26 02:18:36;;;;;;;1.00;1.00;;;;;;;9.55;64.53;98992.97;4438430;32;33744;-80
2023/04/26 02:21:08;;;;;;;0.85;0.85;;;;;;;9.80;63.64;99000.22;4429655;32;34718;-81
2023/04/26 02:23:37;;;;;;;1.20;1.20;;;;;;;9.84;63.46;98996.69;4434936;32;33719;-81
2023/04/26 02:26:06;;;;;;;0.90;0.90;;;;;;;9.80;63.29;99003.66;4429180;32;33496;-81
2023/04/26 02:28:35;;;;;;;1.20;1.10;;;;;;;9.63;63.66;98990.22;4429585;32;33933;-80
2023/04/26 02:31:04;;;;;;;0.90;0.90;;;;;;;9.61;64.13;98995.41;4433879;32;33945;-82
2023/04/26 02:33:34;;;;;;;0.82;0.82;;;;;;;9.71;63.67;99005.59;4445136;32;33870;-79
2023/04/26 02:36:05;;;;;;;1.50;1.12;;;;;;;9.23;65.46;99001.38;4444843;32;33938;-80
2023/04/26 02:38:35;;;;;;;1.27;1.20;;;;;;;9.20;65.66;99004.00;4444039;32;33772;-82
2023/04/26 02:41:04;;;;;;;0.90;0.90;;;;;;;9.15;65.78;98998.06;4443536;32;32859;-81
2023/04/26 02:43:33;;;;;;;1.70;1.60;;;;;;;9.12;66.12;99000.72;4438460;32;33541;-80
2023/04/26 02:46:02;;;;;;;1.02;1.02;;;;;;;8.77;67.33;99004.78;4440493;32;33493;-80
2023/04/26 02:48:31;;;;;;;2.05;1.10;;;;;;;8.94;66.71;99005.34;4436685;32;34671;-80
2023/04/26 02:51:01;;;;;;;1.02;1.02;;;;;;;9.06;66.22;99003.37;4440238;32;34620;-80
2023/04/26 02:53:30;;;;;;;1.27;1.27;;;;;;;9.25;65.92;99009.94;4429883;32;33603;-82
2023/04/26 02:56:00;;;;;;;1.05;1.00;;;;;;;9.17;65.82;99007.50;4442958;32;33492;-80
2023/04/26 02:58:29;;;;;;;1.20;1.20;;;;;;;8.98;66.63;99014.72;4430227;32;33743;-80
2023/04/26 03:00:58;;;;;;;0.90;0.90;;;;;;;8.89;66.86;99007.16;4433545;32;33954;-80
2023/04/26 03:03:29;;;;;;;1.08;1.08;;;;;;;8.75;67.53;99006.53;4445305;32;33957;-80
2023/04/26 03:05:59;;;;;;;1.10;1.10;;;;;;;8.68;67.58;99012.69;4439134;32;34006;-82
2023/04/26 03:08:29;;;;;;;1.37;1.27;;;;;;;8.95;66.71;99016.53;4441670;32;33456;-81
2023/04/26 03:10:58;;;;;;;1.12;1.12;;;;;;;8.75;66.93;99022.06;4434003;32;33260;-80
2023/04/26 03:13:28;;;;;;;1.00;1.00;;;;;;;8.80;67.03;99033.16;4433889;32;33599;-80
2023/04/26 03:15:58;;;;;;;;;;;;;;;8.82;67.38;99028.84;4438573;32;33041;-81
2023/04/26 03:18:27;;;;;;;0.90;0.90;;;;;;;8.85;67.34;99035.69;4443261;32;34411;-81
2023/04/26 03:20:56;;;;;;;1.15;1.15;;;;;;;8.57;68.46;99037.84;4446042;32;33486;-81
2023/04/26 03:23:25;;;;;;;1.45;1.30;;;;;;;8.83;67.57;99047.78;4441709;32;33365;-81
2023/04/26 03:25:55;;;;;;;1.02;1.02;;;;;;;8.70;67.90;99052.31;4429578;32;33717;-81
2023/04/26 03:28:24;;;;;;;0.98;0.98;;;;;;;8.74;67.94;99052.22;4442884;32;33043;-81
2023/04/26 03:30:53;;;;;;;1.42;1.33;;;;;;;8.98;66.94;99058.72;4443771;32;33529;-80
2023/04/26 03:33:22;;;;;;;1.40;1.30;;;;;;;8.91;66.90;99061.44;4436016;32;33725;-80
2023/04/26 03:35:51;;;;;;;1.58;1.40;;;;;;;9.06;66.50;99062.91;4430602;32;33011;-82
2023/04/26 03:38:21;;;;;;;0.90;0.90;;;;;;;9.21;65.13;99059.22;4429966;32;34565;-80
2023/04/26 03:40:50;;;;;;;0.90;0.90;;;;;;;8.94;65.09;99061.41;4437959;32;33553;-81
2023/04/26 03:43:20;;;;;;;0.82;0.82;;;;;;;9.03;64.89;99068.12;4438859;32;33494;-81
2023/04/26 03:45:49;;;;;;;1.17;1.07;;;;;;;8.62;66.38;99067.91;4435219;32;32635;-80
2023/04/26 03:48:18;;;;;;;1.00;1.00;;;;;;;9.00;64.25;99070.78;4446616;32;35386;-80
2023/04/26 03:50:47;;;;;;;0.90;0.90;;;;;;;9.08;63.69;99067.16;4443361;32;33688;-81
2023/04/26 03:53:16;;;;;;;0.80;0.80;;;;;;;9.22;63.18;99069.53;4430554;32;34053;-81
2023/04/26 03:55:45;;;;;;;1.35;1.25;;;;;;;9.35;62.72;99063.25;4434646;32;34258;-82
2023/04/26 03:58:16;;;;;;;1.17;1.08;;;;;;;9.32;62.38;99077.97;4429953;32;33096;-81
2023/04/26 04:00:46;;;;;;;1.35;1.25;;;;;;;9.25;62.06;99066.88;4433517;32;33850;-80
2023/04/26 04:03:15;;;;;;;0.93;0.93;;;;;;;9.23;61.97;99079.00;4438584;32;33215;-81
2023/04/26 04:05:44;;;;;;;1.20;1.10;;;;;;;9.36;61.99;99077.91;4430324;32;32735;-80
2023/04/26 04:08:14;;;;;;;0.85;0.85;;;;;;;9.57;61.47;99091.34;4443402;32;33133;-80
2023/04/26 04:10:44;;;;;;;0.90;0.90;;;;;;;9.34;62.35;99090.00;4441353;32;34970;-80
2023/04/26 04:13:12;;;;;;;1.33;1.23;;;;;;;9.31;62.77;99086.63;4451591;32;34428;-82
2023/04/26 04:15:42;;;;;;;1.00;1.00;;;;;;;9.41;63.28;99090.75;4430984;32;34783;-81
2023/04/26 04:18:12;;;;;;;1.00;1.00;;;;;;;8.92;65.06;99094.19;4445594;32;34350;-81
2023/04/26 04:20:41;;;;;;;0.90;0.90;;;;;;;9.16;64.58;99111.91;4437090;32;222642;-82
2023/04/26 04:23:10;;;;;;;1.20;1.10;;;;;;;9.24;64.08;99108.31;4430772;32;33584;-82
2023/04/26 04:25:39;;;;;;;0.90;0.90;;;;;;;9.06;64.76;99117.22;4436405;32;33811;-80
2023/04/26 04:28:08;;;;;;;0.95;0.95;;;;;;;9.00;64.95;99125.97;4430484;32;33343;-82
2023/04/26 04:30:37;;;;;;;1.23;1.12;;;;;;;8.88;65.56;99126.16;4437368;32;34299;-82
2023/04/26 04:33:06;;;;;;;1.00;1.00;;;;;;;8.63;66.09;99130.84;4443297;32;33415;-80
2023/04/26 04:35:36;;;;;;;1.20;1.20;;;;;;;8.93;65.51;99129.53;4464666;32;33005;-81
2023/04/26 04:38:05;;;;;;;1.00;1.00;;;;;;;8.88;65.62;99134.75;4455669;32;33037;-82
2023/04/26 04:40:35;;;;;;;1.65;1.30;;;;;;;8.86;66.03;99139.09;4438154;32;33428;-82
2023/04/26 04:43:04;;;;;;;1.30;1.23;;;;;;;8.93;65.18;99140.72;4437277;32;33739;-81
2023/04/26 04:45:34;;;;;;;1.10;1.10;;;;;;;8.70;66.05;99147.97;4440526;32;34093;-80
2023/04/26 04:48:04;;;;;;;1.00;1.00;;;;;;;8.48;66.48;99148.28;4440987;32;33910;-80
2023/04/26 04:50:33;;;;;;;1.35;1.25;;;;;;;8.59;66.36;99150.72;4433051;32;35438;-82
2023/04/26 04:53:03;;;;;;;1.00;1.00;;;;;;;9.22;64.22;99151.50;4434876;32;34280;-81
2023/04/26 04:55:32;;;;;;;1.55;1.45;;;;;;;9.29;64.37;99159.12;4445206;32;32619;-81
2023/04/26 04:58:02;;;;;;;1.00;1.00;;;;;;;9.92;61.14;99160.59;4438779;32;33478;-82
2023/04/26 05:00:32;;;;;;;1.10;1.10;;;;;;;10.80;58.46;99172.66;4433236;32;33783;-80
2023/04/26 05:03:02;;;;;;;1.17;1.10;;;;;;;10.92;56.87;99166.34;4434605;32;33150;-81
2023/04/26 05:05:31;;;;;;;1.05;1.00;;;;;;;10.78;57.15;99160.59;4439501;32;32255;-82
2023/04/26 05:08:00;;;;;;;0.90;0.90;;;;;;;11.33;54.66;99167.06;4435781;32;33993;-82
2023/04/26 05:10:31;;;;;;;1.25;1.00;;;;;;;10.78;55.80;99164.06;4429765;32;33671;-81
2023/04/26 05:13:00;;;;;;;1.52;1.42;;;;;;;10.95;55.49;99181.84;4439349;32;33738;-82
2023/04/26 05:15:29;;;;;;;1.80;1.00;;;;;;;10.59;55.74;99170.53;4432581;32;34183;-81
2023/04/26 05:17:59;;;;;;;0.98;0.95;;;;;;;10.63;55.79;99186.00;4429903;32;33711;-80
2023/04/26 05:20:30;;;;;;;0.85;0.85;;;;;;;10.62;55.61;99179.09;4447358;32;34190;-81
2023/04/26 05:22:59;;;;;;;1.05;1.05;;;;;;;10.44;56.54;99179.50;4444457;32;33401;-82
2023/04/26 05:25:28;;;;;;;1.02;0.93;;;;;;;10.93;55.73;99183.59;4454445;32;33798;-82
2023/04/26 05:27:58;;;;;;;1.37;1.27;;;;;;;11.18;53.64;99177.84;4445480;32;33087;-82
2023/04/26 05:30:30;;;;;;;1.00;1.00;;;;;;;10.67;55.61;99182.44;4449841;32;33557;-81
2023/04/26 05:32:59;;;;;;;0.80;0.80;;;;;;;10.71;54.38;99183.25;4438777;32;34445;-82
2023/04/26 05:35:30;;;;;;;;;;;;;;;10.49;55.44;99189.78;4445077;32;33231;-83
2023/04/26 05:37:58;;;;;;;0.90;0.90;;;;;;;10.22;56.08;99184.19;4445455;32;33896;-81
2023/04/26 05:40:27;;;;;;;1.92;1.83;;;;;;;10.11;56.59;99196.53;4445513;32;33965;-82
2023/04/26 05:42:58;;;;;;;1.00;1.00;;;;;;;10.19;55.69;99186.88;4450336;32;34239;-83
2023/04/26 05:45:27;;;;;;;1.00;1.00;;;;;;;10.19;55.75;99192.91;4445379;32;32873;-81
2023/04/26 05:47:56;;;;;;;1.35;1.25;;;;;;;10.09;56.12;99183.59;4430690;32;34057;-81
2023/04/26 05:50:25;;;;;;;0.90;0.90;;;;;;;9.97;56.56;99189.88;4431808;32;34747;-81
2023/04/26 05:52:54;;;;;;;1.35;1.25;;;;;;;10.20;56.12;99188.59;4435879;32;33925;-82
2023/04/26 05:55:23;;;;;;;0.80;0.80;;;;;;;10.55;54.72;99179.25;4430000;32;33110;-83
2023/04/26 05:57:52;;;;;;;0.82;0.82;;;;;;;10.08;55.85;99187.09;4430331;32;33226;-82
2023/04/26 06:00:23;;;;;;;1.87;1.77;;;;;;;9.97;55.78;99189.03;4429451;32;34131;-83
2023/04/26 06:02:52;;;;;;;;;;;;;;;9.98;56.43;99190.75;4441149;32;33778;-82
2023/04/26 06:05:22;;;;;;;1.10;1.10;;;;;;;10.03;56.04;99199.28;4438967;32;33104;-82
2023/04/26 06:07:51;;;;;;;1.00;1.00;;;;;;;9.76;55.36;99205.78;4434285;32;33426;-82
2023/04/26 06:10:20;;;;;;;1.00;1.00;;;;;;;9.87;54.50;99209.06;4437873;32;33679;-83
2023/04/26 06:12:50;;;;;;;1.40;1.00;;;;;;;9.79;54.28;99208.34;4436137;32;33624;-82
2023/04/26 06:15:19;;;;;;;1.00;1.00;;;;;;;9.74;54.08;99213.63;4441379;32;32921;-82
2023/04/26 06:17:49;;;;;;;0.90;0.90;;;;;;;9.73;53.49;99211.88;4428756;32;33548;-83
2023/04/26 06:20:18;;;;;;;0.90;0.90;;;;;;;10.00;53.57;99204.50;4429035;32;33542;-83
2023/04/26 06:22:47;;;;;;;0.80;0.80;;;;;;;10.48;51.72;99208.81;4432111;32;33872;-82
2023/04/26 06:25:16;;;;;;;0.80;0.80;;;;;;;10.68;51.73;99210.09;4446913;32;33380;-82
2023/04/26 06:27:45;;;;;;;0.90;0.90;;;;;;;10.91;50.36;99208.72;4450371;32;33492;-82
2023/04/26 06:30:14;;;;;;;0.80;0.80;;;;;;;10.98;49.60;99210.31;4446213;32;34804;-80
2023/04/26 06:32:44;;;;;;;0.90;0.90;;;;;;;10.84;49.55;99213.19;4445962;32;33886;-82
2023/04/26 06:35:16;;;;;;;0.85;0.85;;;;;;;10.29;48.87;99201.37;4442645;32;33143;-83
2023/04/26 06:37:45;;;;;;;0.90;0.90;;;;;;;9.97;49.38;99205.41;4445682;32;33128;-83
2023/04/26 06:40:15;;;;;;;0.80;0.80;;;;;;;10.01;49.29;99195.88;4445207;32;34406;-82
2023/04/26 06:42:44;;;;;;;0.80;0.80;;;;;;;10.00;50.11;99214.88;4431509;32;33391;-81
2023/04/26 06:45:13;;;;;;;1.45;1.30;;;;;;;10.32;49.83;99216.06;4433616;32;33024;-81
2023/04/26 06:47:42;;;;;;;5.35;2.05;;;;;;;10.43;48.27;99209.72;4446274;32;34774;-81
2023/04/26 06:50:12;;;;;;;0.80;0.80;;;;;;;10.49;49.01;99226.09;4449150;32;34008;-81
2023/04/26 06:52:42;;;;;;;0.82;0.82;;;;;;;10.37;47.25;99209.03;4446657;32;33933;-83
2023/04/26 06:55:11;;;;;;;1.45;1.35;;;;;;;10.36;48.42;99220.28;4446076;32;34287;-82
2023/04/26 06:57:40;;;;;;;0.80;0.80;;;;;;;10.40;47.87;99216.75;4445206;32;33657;-83
2023/04/26 07:00:10;;;;;;;0.90;0.90;;;;;;;10.59;47.97;99231.03;4435698;32;33168;-81
2023/04/26 07:02:39;;;;;;;0.80;0.80;;;;;;;10.37;47.37;99217.66;4429808;32;33013;-80
2023/04/26 07:05:08;;;;;;;1.25;1.15;;;;;;;10.42;47.48;99218.41;4440522;32;33025;-82
2023/04/26 07:07:37;;;;;;;1.20;1.10;;;;;;;10.41;46.92;99219.31;4442681;32;33187;-81
2023/04/26 07:10:09;;;;;;;1.00;1.00;;;;;;;10.55;45.89;99210.38;4451443;32;34117;-81
2023/04/26 07:12:38;;;;;;;0.80;0.80;;;;;;;10.61;46.99;99208.53;4442337;32;33696;-83
2023/04/26 07:15:08;;;;;;;0.88;0.88;;;;;;;10.71;46.81;99216.13;4446506;32;33891;-80
2023/04/26 07:17:37;;;;;;;0.80;0.80;;;;;;;10.38;46.56;99214.16;4445756;32;33243;-80
2023/04/26 07:20:07;;;;;;;0.90;0.90;;;;;;;10.68;45.81;99215.28;4435649;32;34471;-80
2023/04/26 07:22:36;;;;;;;1.10;1.00;;;;;;;10.54;45.29;99230.28;4436144;32;33736;-81
2023/04/26 07:25:06;;;;;;;0.85;0.85;;;;;;;10.37;45.92;99229.78;4430340;32;33013;-81
2023/04/26 07:27:36;;;;;;;1.00;1.00;;;;;;;10.49;45.79;99234.72;4430656;32;33885;-82
2023/04/26 07:30:06;;;;;;;1.20;1.10;;;;;;;10.63;45.18;99247.37;4430157;32;36159;-81
2023/04/26 07:32:36;;;;;;;0.80;0.80;;;;;;;10.44;45.59;99237.41;4435768;32;33045;-82
2023/04/26 07:35:09;;;;;;;0.80;0.80;;;;;;;10.36;45.52;99235.81;4429471;32;31638;-81
2023/04/26 07:37:38;;;;;;;0.80;0.80;;;;;;;10.53;43.51;99240.69;4432094;32;33059;-81
2023/04/26 07:40:09;;;;;;;0.95;0.95;;;;;;;10.41;44.45;99241.78;4441469;32;33587;-82
2023/04/26 07:42:39;;;;;;;1.00;1.00;;;;;;;10.58;45.19;99239.72;4448999;32;33467;-80
2023/04/26 07:45:10;;;;;;;0.90;0.90;;;;;;;10.67;44.18;99239.50;4449738;32;33281;-82
2023/04/26 07:47:38;;;;;;;1.00;1.00;;;;;;;11.03;43.38;99247.37;4445500;32;33794;-82
2023/04/26 07:50:11;;;;;;;0.80;0.80;;;;;;;11.14;43.65;99252.38;4436555;32;34828;-81
2023/04/26 07:52:41;;;;;;;0.80;0.80;;;;;;;11.59;41.38;99267.75;4437955;32;34070;-80
2023/04/26 07:55:10;;;;;;;0.80;0.80;;;;;;;11.53;40.30;99249.72;4442483;32;33141;-81
2023/04/26 07:57:40;;;;;;;1.00;1.00;;;;;;;11.46;41.51;99261.16;4436003;32;33728;-82
2023/04/26 08:00:11;;;;;;;1.37;1.30;;;;;;;11.70;40.79;99252.75;4430301;32;34040;-80
2023/04/26 08:02:39;;;;;;;0.80;0.80;;;;;;;11.21;40.12;99264.31;4430661;32;34076;-82
2023/04/26 08:05:13;;;;;;;0.80;0.80;;;;;;;10.98;40.41;99271.75;4430564;32;34251;-81
2023/04/26 08:07:43;;;;;;;0.80;0.80;;;;;;;10.70;40.88;99261.94;4442842;32;33852;-82
2023/04/26 08:10:12;;;;;;;0.90;0.90;;;;;;;10.76;39.79;99271.34;4434604;32;34567;-81
2023/04/26 08:12:42;;;;;;;0.80;0.80;;;;;;;10.79;40.49;99263.50;4437471;32;34592;-80
2023/04/26 08:15:12;;;;;;;0.80;0.80;;;;;;;11.22;39.10;99273.81;4437646;32;33276;-80
2023/04/26 08:17:41;;;;;;;0.80;0.80;;;;;;;10.95;39.31;99285.66;4442853;32;33692;-81
2023/04/26 08:20:11;;;;;;;1.65;1.10;;;;;;;11.04;37.42;99285.47;4438655;32;33238;-81
2023/04/26 08:22:39;;;;;;;1.35;1.25;;;;;;;11.32;38.90;99284.84;4446018;32;33524;-80
2023/04/26 08:25:09;;;;;;;1.10;1.10;;;;;;;11.50;37.65;99281.81;4444899;32;34360;-80
2023/04/26 08:27:38;;;;;;;0.70;0.70;;;;;;;11.54;37.91;99285.19;4437323;32;33879;-80
2023/04/26 08:30:09;;;;;;;0.73;0.73;;;;;;;11.74;39.09;99295.09;4444359;32;33893;-82
2023/04/26 08:32:38;;;;;;;;;;;;;;;11.61;39.06;99276.34;4438064;32;33553;-80
2023/04/26 08:35:08;;;;;;;0.80;0.80;;;;;;;11.86;36.64;99293.94;4436379;32;33068;-80
2023/04/26 08:37:37;;;;;;;0.70;0.70;;;;;;;11.47;36.22;99294.84;4439350;32;33350;-82
2023/04/26 08:40:09;;;;;;;0.70;0.70;;;;;;;11.31;36.19;99299.56;4443470;32;33970;-81
2023/04/26 08:42:43;;;;;;;0.80;0.80;;;;;;;11.47;36.62;99307.84;4435416;32;33534;-81
2023/04/26 08:45:15;;;;;;;1.23;1.12;;;;;;;11.40;36.63;99301.09;4436856;32;33747;-82
2023/04/26 08:47:45;;;;;;;0.80;0.80;;;;;;;11.36;36.54;99301.22;4436895;32;34532;-80
2023/04/26 08:50:15;;;;;;;0.70;0.70;;;;;;;11.36;35.78;99315.06;4436789;32;34092;-82
2023/04/26 08:52:44;;;;;;;0.80;0.80;;;;;;;11.83;35.91;99300.06;4441429;32;33821;-82
2023/04/26 08:55:15;;;;;;;0.70;0.70;;;;;;;11.74;34.89;99308.09;4437386;32;34326;-81
2023/04/26 08:57:46;;;;;;;1.15;0.90;;;;;;;11.91;36.21;99305.09;4435117;32;33401;-81
2023/04/26 09:00:17;;;;;;;0.80;0.80;;;;;;;12.19;35.37;99310.47;4437123;32;33896;-81
2023/04/26 09:02:48;;;;;;;0.80;0.80;;;;;;;12.19;34.67;99307.87;4434895;32;33550;-82
2023/04/26 09:05:22;;;;;;;0.80;0.80;;;;;;;12.35;36.47;99311.78;4436196;32;33209;-81
2023/04/26 09:07:52;;;;;;;0.80;0.80;;;;;;;12.42;36.08;99309.00;4430376;32;33318;-79
2023/04/26 09:10:21;;;;;;;0.77;0.77;;;;;;;11.93;36.46;99322.37;4437029;32;33696;-80
2023/04/26 09:12:52;;;;;;;0.80;0.80;;;;;;;11.91;36.67;99311.19;4454532;32;33735;-80
2023/04/26 09:15:25;;;;;;;0.85;0.85;;;;;;;11.92;35.84;99307.69;4466926;32;33393;-82
2023/04/26 09:17:54;;;;;;;0.70;0.70;;;;;;;12.18;34.90;99321.78;4461296;32;34394;-80
2023/04/26 09:20:26;;;;;;;1.12;1.02;;;;;;;12.03;34.28;99309.16;4461028;32;33735;-81
2023/04/26 09:23:06;;;;;;;0.70;0.70;;;;;;;12.15;34.82;99303.62;4461326;32;34463;-82
2023/04/26 09:25:36;;;;;;;0.73;0.73;;;;;;;12.45;34.61;99306.34;4453121;32;33869;-82
2023/04/26 09:28:19;;;;;;;0.80;0.80;;;;;;;12.57;34.09;99282.59;4435890;32;33741;-80
2023/04/26 09:30:49;;;;;;;2.25;0.80;;;;;;;12.88;33.90;99282.56;4430129;32;33620;-82
2023/04/26 09:33:18;;;;;;;0.70;0.70;;;;;;;13.00;33.57;99289.19;4441099;32;33666;-81
2023/04/26 09:35:47;;;;;;;0.70;0.70;;;;;;;13.32;34.02;99288.22;4445768;32;34347;-82
2023/04/26 09:38:18;;;;;;;2.95;1.58;;;;;;;12.90;35.82;99287.72;4447444;32;33621;-79
2023/04/26 09:40:51;;;;;;;1.00;0.98;;;;;;;12.65;36.56;99296.22;4450972;32;34393;-82
2023/04/26 09:43:21;;;;;;;0.95;0.95;;;;;;;12.68;36.58;99293.53;4445030;32;34059;-80
2023/04/26 09:45:53;;;;;;;0.70;0.70;;;;;;;12.84;34.88;99291.38;4445425;32;33380;-81
2023/04/26 09:48:24;;;;;;;0.70;0.70;;;;;;;12.81;35.01;99302.72;4441008;32;33611;-81
2023/04/26 09:50:54;;;;;;;0.77;0.77;;;;;;;12.97;34.48;99312.69;4439316;32;33760;-81
2023/04/26 09:53:28;;;;;;;0.98;0.98;;;;;;;13.15;34.40;99293.91;4445348;32;33619;-80
2023/04/26 09:55:58;;;;;;;1.17;1.12;;;;;;;12.88;34.53;99292.09;4445373;32;32946;-81
2023/04/26 09:58:27;;;;;;;0.60;0.60;;;;;;;13.25;33.35;99294.50;4445529;32;33861;-80
2023/04/26 10:00:57;;;;;;;0.70;0.70;;;;;;;13.09;33.20;99298.44;4445236;32;34094;-81
2023/04/26 10:03:26;;;;;;;0.70;0.70;;;;;;;12.94;33.42;99303.22;4450465;32;32964;-80
2023/04/26 10:05:56;;;;;;;0.90;0.90;;;;;;;12.95;33.78;99301.44;4430076;32;33478;-82
2023/04/26 10:08:25;;;;;;;1.00;1.00;;;;;;;13.25;33.83;99304.91;4431564;32;33161;-81
2023/04/26 10:10:55;;;;;;;2.10;1.75;;;;;;;13.17;34.01;99297.34;4432384;32;34575;-80
2023/04/26 10:13:24;;;;;;;0.80;0.80;;;;;;;12.94;33.57;99292.78;4450977;32;34010;-82
2023/04/26 10:15:54;;;;;;;0.82;0.80;;;;;;;13.78;32.95;99296.34;4436547;32;33546;-82
2023/04/26 10:18:24;;;;;;;1.80;1.70;;;;;;;13.68;33.15;99300.16;4438896;32;33679;-81
2023/04/26 10:20:56;;;;;;;0.60;0.60;;;;;;;13.49;33.34;99311.16;4435184;32;33692;-80
2023/04/26 10:23:25;;;;;;;0.70;0.70;;;;;;;12.75;33.99;99302.88;4434467;32;33233;-81
2023/04/26 10:25:54;;;;;;;0.77;0.77;;;;;;;12.91;34.58;99315.47;4441842;32;33312;-82
2023/04/26 10:28:57;;;;;;;0.70;0.70;;;;;;;12.92;33.36;99299.78;4440675;32;33277;-82
2023/04/26 10:32:09;;;;;;;0.95;0.85;;;;;;;12.97;33.20;99310.06;4437277;32;34036;-81
2023/04/26 10:34:40;;;;;;;0.70;0.70;;;;;;;12.69;34.50;99269.22;4425603;32;33972;-81
2023/04/26 10:37:13;;;;;;;;;;;;;;;13.33;34.58;99309.91;4435621;32;35692;-82
2023/04/26 10:39:42;;;;;;;0.80;0.80;;;;;;;13.36;34.17;99317.63;4428569;32;34477;-81
2023/04/26 10:42:24;;;;;;;0.70;0.70;;;;;;;13.50;34.46;99320.66;4442857;32;34558;-83
2023/04/26 10:44:55;;;;;;;0.60;0.60;;;;;;;13.19;32.66;99320.72;4462244;32;33690;-81
2023/04/26 10:47:29;;;;;;;0.60;0.60;;;;;;;12.63;32.98;99324.03;4460370;32;33869;-82
2023/04/26 10:50:07;;;;;;;0.77;0.77;;;;;;;12.91;32.32;99305.06;4460209;32;33410;-81
2023/04/26 10:52:36;;;;;;;0.90;0.90;;;;;;;13.14;32.73;99310.44;4460871;32;34079;-83
2023/04/26 10:55:06;;;;;;;0.70;0.70;;;;;;;12.86;33.82;99312.16;4465826;32;34333;-81
2023/04/26 10:57:50;;;;;;;2.10;1.00;;;;;;;13.05;34.01;99323.75;4460113;32;32618;-82
2023/04/26 11:00:29;;;;;;;0.60;0.60;;;;;;;13.02;33.16;99309.06;4457436;32;34280;-81
2023/04/26 11:03:05;;;;;;;0.60;0.60;;;;;;;13.17;33.67;99299.94;4444767;32;33829;-80
2023/04/26 11:05:54;;;;;;;0.70;0.70;;;;;;;13.37;33.08;99315.00;4440835;32;34506;-81
2023/04/26 11:08:28;;;;;;;1.08;1.00;;;;;;;13.26;32.85;99295.34;4444854;32;33499;-80
2023/04/26 11:11:08;;;;;;;1.25;1.15;;;;;;;13.54;32.55;99298.00;4450125;32;34211;-83
2023/04/26 11:13:38;;;;;;;0.65;0.65;;;;;;;13.76;31.25;99300.75;4444249;32;34701;-83
2023/04/26 11:16:08;;;;;;;0.70;0.70;;;;;;;13.95;31.53;99317.50;4435091;32;33609;-83
2023/04/26 11:18:38;;;;;;;1.20;1.02;;;;;;;14.18;31.84;99298.50;4444374;32;34073;-82
2023/04/26 11:21:10;;;;;;;0.60;0.60;;;;;;;14.49;31.12;99293.03;4445524;32;33789;-83
2023/04/26 11:23:39;;;;;;;0.60;0.60;;;;;;;14.31;31.44;99304.12;4451855;32;33651;-82
2023/04/26 11:26:09;;;;;;;0.60;0.60;;;;;;;13.85;31.58;99306.53;4446093;32;33922;-81
2023/04/26 11:28:38;;;;;;;0.70;0.70;;;;;;;13.87;31.66;99314.31;4446901;32;35206;-82
2023/04/26 11:31:07;;;;;;;0.70;0.70;;;;;;;13.63;32.21;99308.13;4446615;32;33805;-82
2023/04/26 11:33:36;;;;;;;0.75;0.75;;;;;;;13.56;32.33;99314.44;4452322;32;34608;-83
2023/04/26 11:36:06;;;;;;;0.60;0.60;;;;;;;13.07;32.03;99321.94;4442787;32;33601;-81
2023/04/26 11:38:37;;;;;;;0.70;0.70;;;;;;;13.47;32.14;99310.34;4431146;32;33493;-82
2023/04/26 11:41:09;;;;;;;0.60;0.60;;;;;;;13.54;31.91;99305.81;4431210;32;34663;-82
2023/04/26 11:43:38;;;;;;;0.70;0.70;;;;;;;13.81;31.70;99297.09;4439035;32;33918;-82
2023/04/26 11:46:08;;;;;;;1.35;1.25;;;;;;;13.92;30.77;99303.69;4450639;32;35662;-83
2023/04/26 11:48:38;;;;;;;0.70;0.70;;;;;;;13.77;31.17;99308.53;4445829;32;33122;-83
2023/04/26 11:51:09;;;;;;;0.60;0.60;;;;;;;13.42;31.21;99307.87;4446306;32;33857;-83
2023/04/26 11:53:40;;;;;;;1.17;1.08;;;;;;;13.50;31.89;99320.66;4444500;32;33168;-81